Time;durP1;ratioP1;P1;durP2;ratioP2;P2;SDS_P1;SDS_P2;PMS_P1;PMS_P2;Temp;Humidity;BMP_temperature;BMP_pressure;BME280_temperature;BME280_humidity;BME280_pressure;Samples;Min_cycle;Max_cycle;Signal;HPM_P1;HPM_P2
2022/09/22 00:01:09;;;;;;;2.90;1.57;;;8.60;99.90;8.50;101411.00;;;;4929339;28;91949;-65
2022/09/22 00:03:41;;;;;;;1.40;1.27;;;8.60;99.90;8.50;101401.00;;;;4927877;28;93423;-64
2022/09/22 00:06:14;;;;;;;1.63;1.50;;;8.60;99.90;8.40;101404.00;;;;4929393;28;93579;-64
2022/09/22 00:08:44;;;;;;;1.63;1.53;;;8.50;99.90;8.40;101403.00;;;;4929034;28;92545;-64
2022/09/22 00:11:16;;;;;;;3.00;1.97;;;8.50;99.90;8.40;101410.00;;;;4944539;28;92667;-64
2022/09/22 00:13:59;;;;;;;1.87;1.53;;;8.50;99.90;8.30;101391.00;;;;4929780;28;92436;-65
2022/09/22 00:16:36;;;;;;;2.30;1.70;;;8.50;99.90;8.30;101396.00;;;;4928485;28;93444;-65
2022/09/22 00:19:04;;;;;;;3.20;2.37;;;8.40;99.90;8.30;101397.00;;;;4929132;28;93153;-65
2022/09/22 00:21:31;;;;;;;2.60;1.80;;;8.40;99.90;8.20;101398.00;;;;4928952;28;96137;-64
2022/09/22 00:23:56;;;;;;;7.40;1.90;;;8.30;99.90;8.20;101398.00;;;;4928428;28;107997;-65
2022/09/22 00:26:23;;;;;;;5.10;1.67;;;8.30;99.90;8.10;101402.00;;;;4928257;28;122245;-67
2022/09/22 00:28:51;;;;;;;3.33;2.10;;;8.30;99.90;8.10;101403.00;;;;4928019;28;121374;-65
2022/09/22 00:31:23;;;;;;;5.57;1.60;;;8.20;99.90;8.10;101401.00;;;;4929846;28;92673;-65
2022/09/22 00:33:50;;;;;;;2.53;1.70;;;8.20;99.90;8.00;101405.00;;;;4927520;28;102818;-64
2022/09/22 00:36:17;;;;;;;2.00;1.60;;;8.20;99.90;8.00;101400.00;;;;4928208;28;93771;-64
2022/09/22 00:38:44;;;;;;;2.33;1.03;;;8.10;99.90;7.90;101401.00;;;;4928455;28;100154;-64
2022/09/22 00:41:22;;;;;;;1.83;1.47;;;8.10;99.90;7.90;101399.00;;;;4929397;28;92577;-64
2022/09/22 00:44:10;;;;;;;1.63;1.50;;;8.00;99.90;7.90;101410.00;;;;4931489;28;92407;-64
2022/09/22 00:46:39;;;;;;;1.90;1.30;;;8.00;99.90;7.80;101389.00;;;;4930219;28;93025;-64
2022/09/22 00:49:07;;;;;;;2.20;1.93;;;7.90;99.90;7.80;101387.00;;;;4931729;28;92556;-64
2022/09/22 00:51:37;;;;;;;2.10;1.77;;;7.90;99.90;7.80;101401.00;;;;4931638;28;109434;-64
2022/09/22 00:54:08;;;;;;;2.33;1.63;;;7.90;99.90;7.70;101394.00;;;;4911699;28;93491;-64
2022/09/22 00:56:42;;;;;;;3.00;2.17;;;7.90;99.90;7.70;101388.00;;;;4946119;28;110725;-64
2022/09/22 00:59:14;;;;;;;2.80;1.47;;;7.80;99.90;7.60;101391.00;;;;4931608;28;113803;-64
2022/09/22 01:01:39;;;;;;;1.90;1.67;;;7.70;99.90;7.60;101404.00;;;;4930396;28;92108;-64
2022/09/22 01:04:06;;;;;;;1.17;1.03;;;7.70;99.90;7.50;101390.00;;;;4912500;28;108159;-64
2022/09/22 01:06:33;;;;;;;1.23;1.00;;;7.70;99.90;7.50;101390.00;;;;4930751;28;122055;-64
2022/09/22 01:09:00;;;;;;;2.27;1.33;;;7.60;99.90;7.50;101380.00;;;;4931290;28;109763;-64
2022/09/22 01:11:28;;;;;;;1.47;1.30;;;7.60;99.90;7.40;101376.00;;;;4931780;28;101502;-64
2022/09/22 01:14:06;;;;;;;1.70;1.57;;;7.60;99.90;7.40;101382.00;;;;4931776;28;92491;-64
2022/09/22 01:16:52;;;;;;;3.23;1.80;;;7.50;99.90;7.30;101385.00;;;;4930954;28;112026;-64
2022/09/22 01:19:24;;;;;;;1.40;1.30;;;7.50;99.90;7.30;101385.00;;;;4928361;28;113961;-64
2022/09/22 01:22:23;;;;;;;1.80;1.67;;;7.40;99.90;7.20;101378.00;;;;4930307;28;92457;-64
2022/09/22 01:25:22;;;;;;;1.73;1.27;;;7.40;99.90;7.20;101386.00;;;;4944507;28;100122;-64
2022/09/22 01:28:35;;;;;;;1.90;1.80;;;7.30;99.90;7.10;101373.00;;;;4931805;28;92590;-64
2022/09/22 01:31:38;;;;;;;1.67;1.20;;;7.30;99.90;7.00;101371.00;;;;4930364;28;103244;-64
2022/09/22 01:34:18;;;;;;;2.27;1.23;;;7.30;99.90;7.00;101371.00;;;;4930985;28;101517;-64
2022/09/22 01:36:57;;;;;;;2.10;1.47;;;7.50;99.90;7.00;101373.00;;;;4931611;28;101050;-64
2022/09/22 01:39:40;;;;;;;2.03;1.33;;;7.10;99.90;6.90;101362.00;;;;4928611;28;114767;-64
2022/09/22 01:42:29;;;;;;;2.57;1.80;;;7.10;99.90;6.80;101361.00;;;;4946409;28;110881;-64
2022/09/22 01:45:21;;;;;;;2.20;1.53;;;7.00;99.90;6.70;101369.00;;;;4929999;28;92599;-64
2022/09/22 01:47:54;;;;;;;2.03;1.40;;;6.90;99.90;6.70;101370.00;;;;4928612;28;93756;-64
2022/09/22 01:50:29;;;;;;;2.43;1.60;;;7.20;99.90;6.60;101356.00;;;;4928374;28;93577;-64
2022/09/22 01:52:59;;;;;;;1.27;1.17;;;6.80;99.90;6.60;101367.00;;;;4943150;28;109543;-64
2022/09/22 01:55:34;;;;;;;1.20;1.03;;;6.70;99.90;6.50;101358.00;;;;4930975;28;95782;-64
2022/09/22 01:58:04;;;;;;;1.73;1.63;;;6.80;99.90;6.40;101347.00;;;;4930876;28;100241;-64
2022/09/22 02:00:31;;;;;;;0.87;0.87;;;6.60;99.90;6.40;101349.00;;;;4913118;28;93526;-64
2022/09/22 02:03:39;;;;;;;1.77;1.30;;;7.00;99.90;6.30;101356.00;;;;4927237;28;93278;-64
2022/09/22 02:06:17;;;;;;;0.93;0.93;;;6.50;99.90;6.30;101343.00;;;;4929176;28;92068;-64
2022/09/22 02:08:54;;;;;;;1.20;1.10;;;6.80;99.90;6.20;101348.00;;;;4944352;28;102512;-64
2022/09/22 02:11:21;;;;;;;3.03;2.20;;;6.40;99.90;6.20;101349.00;;;;4930848;28;92467;-64
2022/09/22 02:13:47;;;;;;;2.27;1.93;;;6.40;99.90;6.20;101350.00;;;;4918371;28;93524;-64
2022/09/22 02:16:16;;;;;;;1.90;1.73;;;6.60;99.90;6.10;101338.00;;;;4912729;28;111734;-64
2022/09/22 02:18:46;;;;;;;2.13;1.77;;;6.40;99.90;6.10;101338.00;;;;4928743;28;92423;-64
2022/09/22 02:21:13;;;;;;;2.03;1.40;;;6.30;99.90;6.10;101337.00;;;;4930668;28;93500;-64
2022/09/22 02:23:40;;;;;;;2.97;1.47;;;6.20;99.90;6.00;101341.00;;;;4930668;28;93293;-64
2022/09/22 02:26:08;;;;;;;2.77;1.67;;;6.20;99.90;6.00;101346.00;;;;4930915;28;92049;-64
2022/09/22 02:28:37;;;;;;;1.20;1.10;;;6.60;99.90;6.00;101349.00;;;;4931112;28;92024;-64
2022/09/22 02:31:04;;;;;;;1.40;1.30;;;6.50;99.90;5.90;101367.00;;;;4931077;28;92903;-65
2022/09/22 02:33:35;;;;;;;2.30;1.67;;;6.10;99.90;5.90;101356.00;;;;4942704;28;106513;-64
2022/09/22 02:36:36;;;;;;;1.83;1.43;;;6.60;99.90;5.80;101352.00;;;;4928326;28;92571;-64
2022/09/22 02:39:13;;;;;;;1.93;1.40;;;6.00;99.90;5.80;101349.00;;;;4929376;28;93581;-64
2022/09/22 02:42:25;;;;;;;1.87;1.77;;;6.00;99.90;5.70;101342.00;;;;4929441;28;106782;-64
2022/09/22 02:45:21;;;;;;;2.77;1.80;;;6.00;99.90;5.70;101357.00;;;;4904284;28;93491;-64
2022/09/22 02:47:56;;;;;;;4.20;1.93;;;6.00;99.90;5.80;101358.00;;;;4927407;28;103720;-64
2022/09/22 02:50:24;;;;;;;2.27;1.60;;;5.90;99.90;5.80;101361.00;;;;4929483;28;92401;-64
2022/09/22 02:52:55;;;;;;;1.83;1.47;;;5.90;99.90;5.80;101360.00;;;;4929196;28;93697;-64
2022/09/22 02:55:20;;;;;;;2.83;1.83;;;6.00;99.90;5.80;101362.00;;;;4943319;28;93375;-64
2022/09/22 02:57:46;;;;;;;2.93;2.13;;;6.00;99.90;5.80;101360.00;;;;4929486;28;110447;-65
2022/09/22 03:00:12;;;;;;;1.90;1.67;;;5.90;99.90;5.80;101356.00;;;;4929429;28;92966;-65
2022/09/22 03:02:38;;;;;;;2.23;2.03;;;5.90;99.90;5.80;101356.00;;;;4928436;28;92661;-65
2022/09/22 03:05:04;;;;;;;1.60;1.20;;;5.90;99.90;5.70;101347.00;;;;4925728;28;120151;-65
2022/09/22 03:07:31;;;;;;;2.57;2.23;;;5.90;99.90;5.70;101346.00;;;;4929984;28;104339;-65
2022/09/22 03:09:56;;;;;;;3.53;1.83;;;5.80;99.90;5.60;101345.00;;;;4929386;28;92571;-65
2022/09/22 03:12:22;;;;;;;1.70;1.60;;;5.80;99.90;5.60;101348.00;;;;4929727;28;121522;-66
2022/09/22 03:14:49;;;;;;;1.77;1.67;;;5.80;99.90;5.60;101344.00;;;;4928974;28;92448;-66
2022/09/22 03:17:15;;;;;;;2.40;1.60;;;5.70;99.90;5.50;101351.00;;;;4930191;28;92956;-65
2022/09/22 03:19:41;;;;;;;2.17;2.03;;;5.70;99.90;5.50;101352.00;;;;4929101;28;107752;-65
2022/09/22 03:22:06;;;;;;;1.60;1.47;;;5.60;99.90;5.40;101357.00;;;;4929929;28;92806;-65
2022/09/22 03:24:32;;;;;;;2.93;1.70;;;5.50;99.90;5.30;101352.00;;;;4928134;28;106732;-66
2022/09/22 03:26:58;;;;;;;1.90;1.53;;;6.00;99.90;5.30;101342.00;;;;4929533;28;110363;-66
2022/09/22 03:29:23;;;;;;;3.70;2.27;;;5.50;99.90;5.30;101340.00;;;;4928700;28;107190;-65
2022/09/22 03:31:49;;;;;;;1.87;1.70;;;5.50;99.90;5.20;101343.00;;;;4928550;28;122384;-65
2022/09/22 03:34:15;;;;;;;2.03;1.63;;;5.40;99.90;5.20;101347.00;;;;4927959;28;121435;-65
2022/09/22 03:36:40;;;;;;;3.47;2.23;;;5.30;99.90;5.10;101345.00;;;;4930172;28;99515;-65
2022/09/22 03:39:06;;;;;;;2.33;2.07;;;5.30;99.90;5.10;101351.00;;;;4928929;28;109129;-65
2022/09/22 03:41:32;;;;;;;2.57;1.90;;;5.30;99.90;5.10;101343.00;;;;4929025;28;96637;-65
2022/09/22 03:43:57;;;;;;;1.70;1.60;;;5.30;99.90;5.00;101340.00;;;;4928860;28;93525;-65
2022/09/22 03:46:23;;;;;;;2.50;1.80;;;5.70;99.90;5.00;101342.00;;;;4928978;28;111065;-65
2022/09/22 03:48:50;;;;;;;2.27;2.07;;;5.20;99.90;5.00;101341.00;;;;4929149;28;92360;-65
2022/09/22 03:51:15;;;;;;;2.33;2.07;;;5.20;99.90;4.90;101340.00;;;;4930063;28;93015;-64
2022/09/22 03:53:41;;;;;;;4.80;2.40;;;5.10;99.90;4.90;101349.00;;;;4927757;28;122011;-65
2022/09/22 03:56:11;;;;;;;4.90;2.07;;;5.10;99.90;4.90;101352.00;;;;4929146;28;92342;-65
2022/09/22 03:58:37;;;;;;;4.27;2.57;;;5.10;99.90;4.80;101356.00;;;;4928400;28;92611;-65
2022/09/22 04:01:05;;;;;;;3.83;1.83;;;5.10;99.90;4.80;101350.00;;;;4929321;28;92635;-65
2022/09/22 04:03:31;;;;;;;4.27;2.97;;;5.00;99.90;4.80;101357.00;;;;4928022;28;93425;-65
2022/09/22 04:05:57;;;;;;;2.73;1.87;;;5.00;99.90;4.80;101348.00;;;;4929558;28;93057;-65
2022/09/22 04:08:23;;;;;;;2.33;2.10;;;5.00;99.90;4.80;101343.00;;;;4929190;28;93074;-65
2022/09/22 04:10:48;;;;;;;3.13;1.83;;;5.00;99.90;4.80;101335.00;;;;4926938;28;95268;-65
2022/09/22 04:13:14;;;;;;;4.70;2.60;;;4.90;99.90;4.80;101334.00;;;;4928248;28;119848;-65
2022/09/22 04:15:41;;;;;;;1.60;1.50;;;4.90;99.90;4.70;101336.00;;;;4929452;28;94130;-65
2022/09/22 04:18:07;;;;;;;5.60;2.70;;;4.90;99.90;4.70;101343.00;;;;4931138;28;109246;-65
2022/09/22 04:20:33;;;;;;;2.37;2.10;;;4.90;99.90;4.70;101329.00;;;;4944911;28;123317;-65
2022/09/22 04:22:58;;;;;;;3.27;2.20;;;4.90;99.90;4.70;101337.00;;;;4932600;28;93066;-65
2022/09/22 04:25:24;;;;;;;3.27;2.53;;;5.00;99.90;4.70;101337.00;;;;4929510;28;111160;-65
2022/09/22 04:27:50;;;;;;;2.50;2.30;;;4.90;99.90;4.70;101336.00;;;;4932579;28;109030;-64
2022/09/22 04:30:16;;;;;;;1.93;1.80;;;4.90;99.90;4.70;101336.00;;;;4930500;28;121943;-64
2022/09/22 04:32:41;;;;;;;4.17;2.63;;;4.90;99.90;4.80;101339.00;;;;4931244;28;109752;-64
2022/09/22 04:35:08;;;;;;;2.07;1.87;;;4.90;99.90;4.80;101346.00;;;;4931877;28;107987;-64
2022/09/22 04:37:33;;;;;;;3.53;3.17;;;5.00;99.90;4.90;101337.00;;;;4929975;28;92524;-65
2022/09/22 04:39:59;;;;;;;4.93;2.80;;;5.10;99.90;5.00;101337.00;;;;4930456;28;122339;-65
2022/09/22 04:42:25;;;;;;;3.23;2.47;;;5.10;99.90;5.00;101333.00;;;;4931939;28;93627;-64
2022/09/22 04:44:51;;;;;;;2.63;2.07;;;5.20;99.90;5.10;101331.00;;;;4931046;28;111019;-65
2022/09/22 04:47:17;;;;;;;1.90;1.40;;;5.20;99.90;5.20;101344.00;;;;4917835;28;108927;-65
2022/09/22 04:49:42;;;;;;;3.87;2.47;;;5.30;99.90;5.20;101341.00;;;;4905030;28;122042;-64
2022/09/22 04:52:08;;;;;;;2.67;2.47;;;6.00;99.90;5.30;101347.00;;;;4931161;28;123171;-65
2022/09/22 04:54:34;;;;;;;5.23;3.07;;;5.40;99.90;5.30;101349.00;;;;4930528;28;92484;-65
2022/09/22 04:57:01;;;;;;;3.13;1.97;;;5.50;99.90;5.30;101345.00;;;;4931364;28;107884;-65
2022/09/22 04:59:28;;;;;;;2.67;2.47;;;5.40;99.90;5.30;101336.00;;;;4931773;28;93021;-65
2022/09/22 05:01:54;;;;;;;2.40;2.20;;;5.90;99.90;5.30;101339.00;;;;4931215;28;92530;-65
2022/09/22 05:04:19;;;;;;;2.83;2.60;;;5.50;99.90;5.40;101344.00;;;;4928293;28;110079;-65
2022/09/22 05:06:45;;;;;;;2.50;2.30;;;5.50;99.90;5.30;101351.00;;;;4928521;28;93472;-65
2022/09/22 05:09:11;;;;;;;1.83;1.67;;;5.80;99.90;5.30;101347.00;;;;4930880;28;93646;-65
2022/09/22 05:11:37;;;;;;;3.10;2.07;;;5.50;99.90;5.40;101361.00;;;;4931144;28;114326;-65
2022/09/22 05:14:03;;;;;;;3.27;1.60;;;5.50;99.90;5.30;101368.00;;;;4930021;28;111249;-65
2022/09/22 05:16:31;;;;;;;2.33;2.10;;;5.50;99.90;5.40;101360.00;;;;4931813;28;92615;-65
2022/09/22 05:18:56;;;;;;;2.33;2.03;;;5.60;99.90;5.30;101366.00;;;;4930696;28;92755;-65
2022/09/22 05:21:22;;;;;;;2.97;1.73;;;6.20;99.90;5.40;101369.00;;;;4932299;28;92848;-65
2022/09/22 05:23:48;;;;;;;2.10;1.93;;;5.50;99.90;5.40;101365.00;;;;4930894;28;102398;-65
2022/09/22 05:26:13;;;;;;;2.63;1.80;;;5.60;99.90;5.40;101370.00;;;;4931552;28;92302;-65
2022/09/22 05:28:39;;;;;;;2.63;1.47;;;5.50;99.90;5.40;101366.00;;;;4929877;28;124046;-65
2022/09/22 05:31:05;;;;;;;1.90;1.80;;;6.30;99.90;5.50;101377.00;;;;4930719;28;93854;-66
2022/09/22 05:33:31;;;;;;;1.43;1.33;;;5.60;99.90;5.60;101372.00;;;;4931305;28;92581;-65
2022/09/22 05:35:56;;;;;;;1.80;1.70;;;5.70;99.90;5.60;101378.00;;;;4930455;28;106227;-65
2022/09/22 05:38:22;;;;;;;2.63;2.40;;;5.80;99.90;5.70;101369.00;;;;4930974;28;93931;-65
2022/09/22 05:40:48;;;;;;;2.90;2.53;;;5.90;99.90;5.80;101383.00;;;;4929879;28;122037;-65
2022/09/22 05:43:14;;;;;;;4.50;3.10;;;5.80;99.90;5.90;101379.00;;;;4904744;28;109424;-65
2022/09/22 05:45:40;;;;;;;2.47;2.27;;;6.00;99.90;5.90;101391.00;;;;4931456;28;92107;-66
2022/09/22 05:48:05;;;;;;;3.70;3.13;;;6.10;99.90;6.00;101385.00;;;;4931101;28;116279;-65
2022/09/22 05:50:31;;;;;;;5.53;2.97;;;6.10;99.90;6.00;101379.00;;;;4928839;28;122511;-65
2022/09/22 05:53:09;;;;;;;2.13;1.53;;;6.20;99.90;6.10;101386.00;;;;4929922;28;109477;-65
2022/09/22 05:55:37;;;;;;;2.50;2.20;;;6.20;99.90;6.10;101380.00;;;;4929379;28;93252;-65
2022/09/22 05:58:03;;;;;;;2.77;2.20;;;6.20;99.90;6.20;101380.00;;;;4930693;28;113652;-66
2022/09/22 06:00:29;;;;;;;4.67;3.20;;;6.30;99.90;6.30;101382.00;;;;4930783;28;92208;-65
2022/09/22 06:02:55;;;;;;;2.27;2.07;;;6.40;99.90;6.30;101382.00;;;;4927899;28;92342;-65
2022/09/22 06:05:21;;;;;;;2.90;2.63;;;6.40;99.90;6.40;101385.00;;;;4928951;28;109275;-65
2022/09/22 06:07:54;;;;;;;3.40;2.37;;;6.70;99.90;6.40;101391.00;;;;4930866;28;92862;-65
2022/09/22 06:10:20;;;;;;;2.13;1.57;;;6.60;99.90;6.50;101389.00;;;;4930862;28;93118;-65
2022/09/22 06:12:46;;;;;;;3.93;1.93;;;7.30;99.90;6.60;101396.00;;;;4931018;28;109360;-66
2022/09/22 06:15:12;;;;;;;5.20;3.03;;;6.70;99.90;6.70;101398.00;;;;4930279;28;92497;-66
2022/09/22 06:17:37;;;;;;;2.33;1.57;;;6.80;99.90;6.70;101390.00;;;;4929953;28;122091;-65
2022/09/22 06:20:04;;;;;;;2.37;2.17;;;6.80;99.90;6.70;101388.00;;;;4930180;28;93757;-66
2022/09/22 06:22:29;;;;;;;3.57;2.00;;;6.80;99.90;6.70;101399.00;;;;4930905;28;92903;-65
2022/09/22 06:24:55;;;;;;;1.23;1.23;;;6.90;99.90;6.80;101397.00;;;;4929954;28;108563;-66
2022/09/22 06:27:21;;;;;;;1.63;1.53;;;7.30;99.90;6.90;101397.00;;;;4929316;28;123220;-65
2022/09/22 06:29:46;;;;;;;1.23;1.13;;;7.00;99.90;7.00;101411.00;;;;4928521;28;122317;-66
2022/09/22 06:32:12;;;;;;;2.27;1.70;;;7.00;99.90;7.00;101398.00;;;;4929057;28;110747;-65
2022/09/22 06:34:38;;;;;;;1.63;1.43;;;7.10;99.90;7.10;101405.00;;;;4930173;28;92553;-65
2022/09/22 06:37:07;;;;;;;3.40;2.00;;;7.20;99.90;7.20;101398.00;;;;4929870;28;119746;-65
2022/09/22 06:39:36;;;;;;;1.50;1.40;;;7.50;99.90;7.30;101397.00;;;;4927866;28;110793;-65
2022/09/22 06:42:02;;;;;;;2.57;2.17;;;7.30;99.90;7.40;101401.00;;;;4930384;28;92654;-65
2022/09/22 06:44:29;;;;;;;1.80;1.53;;;7.50;99.90;7.60;101400.00;;;;4930007;28;93610;-66
2022/09/22 06:46:54;;;;;;;1.97;1.77;;;7.60;99.90;7.90;101398.00;;;;4930329;28;94158;-65
2022/09/22 06:49:20;;;;;;;2.07;1.67;;;7.90;99.90;8.10;101401.00;;;;4928884;28;93142;-65
2022/09/22 06:51:48;;;;;;;1.90;1.70;;;8.10;99.90;8.30;101406.00;;;;4929918;28;108518;-65
2022/09/22 06:54:14;;;;;;;2.37;1.63;;;8.30;99.90;8.60;101405.00;;;;4929867;28;92941;-66
2022/09/22 06:56:42;;;;;;;2.67;1.63;;;8.80;99.90;9.00;101409.00;;;;4930596;28;93599;-66
2022/09/22 06:59:13;;;;;;;3.23;2.23;;;8.90;99.90;9.30;101412.00;;;;4929675;28;93542;-66
2022/09/22 07:01:40;;;;;;;7.10;2.40;;;9.20;99.90;9.70;101416.00;;;;4930050;28;91740;-65
2022/09/22 07:04:07;;;;;;;2.77;2.07;;;9.60;99.90;10.00;101416.00;;;;4929920;28;92623;-66
2022/09/22 07:06:33;;;;;;;2.23;2.00;;;9.90;99.90;10.20;101414.00;;;;4929684;28;122284;-65
2022/09/22 07:08:59;;;;;;;3.03;2.73;;;10.20;99.90;10.40;101412.00;;;;4927996;28;93487;-65
2022/09/22 07:11:25;;;;;;;5.47;2.37;;;10.40;99.90;10.60;101425.00;;;;4931832;28;92946;-66
2022/09/22 07:13:53;;;;;;;4.10;2.23;;;10.60;99.90;10.70;101429.00;;;;4930405;28;92044;-65
2022/09/22 07:16:22;;;;;;;2.47;2.07;;;10.70;99.90;10.90;101421.00;;;;4928963;28;111985;-65
2022/09/22 07:18:54;;;;;;;3.10;1.87;;;10.90;99.90;11.00;101431.00;;;;4929456;28;93598;-66
2022/09/22 07:21:23;;;;;;;2.97;1.83;;;11.00;99.90;11.20;101424.00;;;;4929910;28;92456;-65
2022/09/22 07:23:52;;;;;;;2.30;2.10;;;11.20;99.90;11.60;101421.00;;;;4929381;28;92543;-65
2022/09/22 07:26:22;;;;;;;2.17;2.00;;;11.50;99.90;11.90;101420.00;;;;4926700;28;107052;-66
2022/09/22 07:28:52;;;;;;;1.33;1.23;;;11.80;99.90;12.20;101424.00;;;;4927896;28;92667;-66
2022/09/22 07:31:18;;;;;;;2.27;1.50;;;12.10;99.90;12.50;101421.00;;;;4930474;28;92490;-66
2022/09/22 07:33:45;;;;;;;1.73;1.60;;;12.40;99.90;12.80;101425.00;;;;4917981;28;107938;-66
2022/09/22 07:36:17;;;;;;;2.27;1.80;;;12.70;99.90;13.20;101426.00;;;;4929476;28;108099;-65
2022/09/22 07:38:48;;;;;;;2.27;1.67;;;13.10;99.90;13.60;101433.00;;;;4926870;28;93229;-65
2022/09/22 07:41:19;;;;;;;2.37;1.83;;;13.40;99.90;13.90;101429.00;;;;4929459;28;92290;-65
2022/09/22 07:43:50;;;;;;;2.60;1.70;;;14.30;99.90;14.00;101429.00;;;;4929596;28;92086;-66
2022/09/22 07:46:16;;;;;;;3.37;2.13;;;13.90;99.90;14.10;101432.00;;;;4927925;28;94995;-65
2022/09/22 07:48:46;;;;;;;1.60;1.50;;;14.00;99.90;14.30;101438.00;;;;4928737;28;92797;-65
2022/09/22 07:51:21;;;;;;;1.63;1.50;;;14.20;99.90;14.60;101431.00;;;;4931628;28;91623;-65
2022/09/22 07:53:49;;;;;;;2.00;1.80;;;14.40;99.90;14.90;101438.00;;;;4931843;28;92652;-65
2022/09/22 07:56:19;;;;;;;2.85;2.55;;;14.70;99.90;15.20;101434.00;;;;4932314;28;92871;-66
2022/09/22 07:58:52;;;;;;;4.10;2.33;;;15.10;99.90;15.40;101432.00;;;;4932670;28;93512;-65
2022/09/22 08:01:25;;;;;;;1.98;1.58;;;15.30;99.90;15.50;101432.00;;;;4932162;28;92526;-65
2022/09/22 08:03:51;;;;;;;1.67;1.57;;;15.40;99.90;15.60;101434.00;;;;4932173;28;92358;-65
2022/09/22 08:06:19;;;;;;;2.10;1.85;;;15.50;99.90;15.80;101437.00;;;;4931941;28;93519;-64
2022/09/22 08:08:52;;;;;;;1.92;1.70;;;15.70;99.90;16.10;101442.00;;;;4931937;28;100140;-65
2022/09/22 08:11:20;;;;;;;1.23;0.90;;;16.00;99.90;16.50;101444.00;;;;4933133;28;92467;-65
2022/09/22 08:13:59;;;;;;;1.75;1.10;;;16.30;99.90;16.80;101443.00;;;;4932582;28;92494;-64
2022/09/22 08:16:28;;;;;;;1.75;1.30;;;16.70;99.90;17.20;101439.00;;;;4948051;28;93114;-63
2022/09/22 08:18:56;;;;;;;1.13;1.08;;;17.00;99.90;17.60;101443.00;;;;4931519;28;107920;-64
2022/09/22 08:21:26;;;;;;;3.17;1.92;;;17.40;99.90;17.80;101442.00;;;;4932666;28;93034;-64
2022/09/22 08:23:53;;;;;;;2.58;1.70;;;17.60;99.90;18.00;101448.00;;;;4931811;28;93596;-63
2022/09/22 08:26:20;;;;;;;1.60;1.50;;;17.80;99.90;18.00;101447.00;;;;4932259;28;93551;-63
2022/09/22 08:28:50;;;;;;;1.83;1.70;;;17.90;99.90;18.10;101442.00;;;;4932082;28;92644;-63
2022/09/22 08:31:18;;;;;;;1.13;0.80;;;18.00;99.90;18.30;101446.00;;;;4929177;28;103957;-63
2022/09/22 08:33:45;;;;;;;1.58;1.45;;;18.10;99.90;18.60;101446.00;;;;4931948;28;92705;-63
2022/09/22 08:36:11;;;;;;;1.23;1.10;;;18.40;99.90;18.90;101449.00;;;;4931658;28;109984;-64
2022/09/22 08:38:38;;;;;;;2.67;1.55;;;18.70;99.60;19.10;101453.00;;;;4932482;28;92478;-63
2022/09/22 08:41:30;;;;;;;1.75;1.63;;;18.90;98.20;19.20;101456.00;;;;4947180;28;91327;-63
2022/09/22 08:44:25;;;;;;;1.55;0.95;;;19.10;96.80;19.30;101451.00;;;;4930876;28;92971;-64
2022/09/22 08:46:53;;;;;;;0.93;0.90;;;19.20;95.80;19.50;101460.00;;;;4902632;28;93659;-64
2022/09/22 08:52:39;;;;;;;1.38;1.00;;;19.30;93.00;19.50;101453.00;;;;4928010;28;92992;-63
2022/09/22 08:55:16;;;;;;;7.85;1.70;;;19.20;92.60;19.50;101461.00;;;;4930603;28;94836;-62
2022/09/22 08:58:43;;;;;;;1.17;0.80;;;19.30;91.20;19.60;101455.00;;;;4946687;28;113695;-64
2022/09/22 09:01:38;;;;;;;0.38;0.38;;;19.30;90.60;19.60;101461.00;;;;4919925;28;92149;-63
2022/09/22 09:04:33;;;;;;;1.63;0.82;;;19.40;88.90;19.70;101454.00;;;;4909601;28;91966;-63
2022/09/22 09:07:14;;;;;;;0.80;0.80;;;19.50;89.60;19.90;101448.00;;;;4932512;28;92532;-63
2022/09/22 09:10:07;;;;;;;1.20;0.80;;;19.60;86.00;19.90;101450.00;;;;4945648;28;92976;-63
2022/09/22 09:12:55;;;;;;;0.98;0.77;;;19.70;85.50;19.90;101448.00;;;;4932005;28;92677;-63
2022/09/22 09:15:54;;;;;;;0.70;0.70;;;19.70;83.50;20.00;101447.00;;;;4928319;28;92540;-63
2022/09/22 09:18:32;;;;;;;0.55;0.45;;;19.80;84.20;20.40;101452.00;;;;4931922;28;93457;-63
2022/09/22 09:21:04;;;;;;;0.63;0.43;;;19.90;85.10;20.80;101450.00;;;;4927896;28;93607;-63
2022/09/22 09:23:46;;;;;;;0.38;0.38;;;20.30;81.10;21.10;101453.00;;;;4913161;28;112904;-63
2022/09/22 09:26:14;;;;;;;0.43;0.30;;;20.60;77.60;21.20;101452.00;;;;4945970;28;92820;-63
2022/09/22 09:28:47;;;;;;;1.05;0.55;;;20.90;73.30;21.30;101445.00;;;;4931859;28;92716;-62
2022/09/22 09:31:48;;;;;;;0.50;0.50;;;20.90;69.20;21.30;101450.00;;;;4927735;28;93656;-62
2022/09/22 09:34:16;;;;;;;0.30;0.30;;;20.80;71.80;21.50;101448.00;;;;4904926;28;93079;-63
2022/09/22 09:36:56;;;;;;;2.92;0.55;;;20.90;73.00;21.70;101459.00;;;;4912314;28;91756;-63
2022/09/22 09:39:30;;;;;;;0.75;0.40;;;21.10;69.50;21.90;101452.00;;;;4929953;28;92985;-63
2022/09/22 09:42:00;;;;;;;0.40;0.30;;;21.20;70.50;22.10;101454.00;;;;4930437;28;107404;-64
2022/09/22 09:44:30;;;;;;;1.80;0.50;;;21.50;68.20;22.30;101444.00;;;;4929971;28;93485;-63
2022/09/22 09:47:27;;;;;;;0.77;0.70;;;21.70;67.50;22.60;101446.00;;;;4929805;28;98126;-63
2022/09/22 09:49:53;;;;;;;1.90;0.38;;;21.90;64.90;22.60;101444.00;;;;4930053;28;92951;-64
2022/09/22 09:52:21;;;;;;;0.77;0.63;;;21.90;63.60;22.80;101448.00;;;;4930819;28;94031;-63
2022/09/22 09:54:48;;;;;;;0.85;0.65;;;22.10;65.00;23.20;101448.00;;;;4912054;28;92864;-62
2022/09/22 09:57:19;;;;;;;0.93;0.57;;;22.50;63.80;23.20;101444.00;;;;4931695;28;96961;-63
2022/09/22 10:00:30;;;;;;;0.88;0.73;;;22.60;59.50;23.00;101438.00;;;;4928513;28;92349;-63
2022/09/22 10:03:02;;;;;;;0.50;0.47;;;22.60;59.00;22.90;101439.00;;;;4931008;28;92936;-62
2022/09/22 10:05:31;;;;;;;0.82;0.60;;;22.40;59.60;23.10;101436.00;;;;4929896;28;92548;-62
2022/09/22 10:08:22;;;;;;;2.28;0.80;;;22.50;58.70;23.10;101437.00;;;;4945874;28;92467;-63
2022/09/22 10:10:48;;;;;;;1.00;0.65;;;22.60;59.10;23.40;101438.00;;;;4927974;28;93666;-65
2022/09/22 10:13:32;;;;;;;0.82;0.30;;;22.80;60.30;23.70;101433.00;;;;4928355;28;122765;-63
2022/09/22 10:16:27;;;;;;;0.65;0.32;;;23.10;58.00;24.10;101434.00;;;;4929268;28;92411;-62
2022/09/22 10:19:05;;;;;;;0.40;0.20;;;23.40;57.60;24.30;101431.00;;;;4930061;28;92590;-63
2022/09/22 10:21:30;;;;;;;0.77;0.40;;;23.70;56.60;24.60;101427.00;;;;4945850;28;92155;-63
2022/09/22 10:23:59;;;;;;;2.25;0.90;;;23.90;53.90;24.50;101424.00;;;;4928652;28;122855;-63
2022/09/22 10:26:28;;;;;;;0.73;0.20;;;24.00;52.00;24.60;101426.00;;;;4930925;28;92720;-64
2022/09/22 10:29:17;;;;;;;0.45;0.45;;;24.00;53.60;24.80;101422.00;;;;4930788;28;91762;-66
2022/09/22 10:32:02;;;;;;;2.95;0.82;;;24.20;52.70;25.10;101421.00;;;;4930829;28;92426;-63
2022/09/22 10:34:58;;;;;;;2.08;0.43;;;24.40;52.00;25.30;101419.00;;;;4928825;28;93533;-64
2022/09/22 10:37:27;;;;;;;0.40;0.28;;;24.70;52.30;25.50;101422.00;;;;4929932;28;93773;-64
2022/09/22 10:39:59;;;;;;;0.30;0.20;;;25.00;50.80;25.30;101437.00;;;;4942208;28;109532;-63
2022/09/22 10:42:39;;;;;;;0.35;0.35;;;24.90;50.70;24.80;101429.00;;;;4910076;28;101414;-66
2022/09/22 10:45:35;;;;;;;0.60;0.50;;;24.60;51.20;24.10;101421.00;;;;4944328;28;92555;-66
2022/09/22 10:48:36;;;;;;;1.48;0.70;;;24.10;50.60;23.40;101429.00;;;;4929101;28;95058;-63
2022/09/22 10:51:15;;;;;;;1.23;0.68;;;23.40;51.80;22.90;101423.00;;;;4944471;28;94738;-66
2022/09/22 10:54:27;;;;;;;0.43;0.35;;;22.80;53.10;22.40;101432.00;;;;4944258;28;98130;-63
2022/09/22 10:56:58;;;;;;;0.60;0.60;;;22.30;54.00;22.00;101424.00;;;;4930715;28;93262;-63
2022/09/22 10:59:58;;;;;;;0.68;0.50;;;21.90;54.70;21.40;101415.00;;;;4912063;28;92682;-63
2022/09/22 11:02:48;;;;;;;0.38;0.38;;;21.40;53.50;20.60;101427.00;;;;4926402;28;105170;-62
2022/09/22 11:12:55;;;;;;;2.15;0.55;;;19.30;56.60;18.90;101428.00;;;;4929860;28;92359;-65
2022/09/22 11:16:04;;;;;;;0.68;0.40;;;18.90;57.00;18.80;101421.00;;;;4910090;28;99680;-61
2022/09/22 11:19:10;;;;;;;0.20;0.20;;;18.70;56.90;18.70;101423.00;;;;4945103;28;100841;-64
2022/09/22 11:22:08;;;;;;;0.10;0.10;;;18.50;57.40;18.90;101415.00;;;;4926819;28;93825;-66
2022/09/22 11:25:06;;;;;;;0.22;0.22;;;18.50;57.60;19.50;101417.00;;;;4943700;28;103965;-66
2022/09/22 11:27:57;;;;;;;0.25;0.25;;;18.90;57.80;20.30;101421.00;;;;4929966;28;91231;-64
2022/09/22 11:30:23;;;;;;;0.45;0.45;;;19.60;58.10;21.20;101415.00;;;;4942400;28;102386;-62